createdAt,value
2023-04-21T00:00:43.805Z,9.13
2023-04-21T00:04:09.109Z,9.18
2023-04-21T00:07:34.271Z,9.19
2023-04-21T00:10:59.492Z,9.23
2023-04-21T00:14:24.741Z,9.27
2023-04-21T00:17:49.992Z,9.29
2023-04-21T00:21:15.153Z,9.29
2023-04-21T00:24:40.387Z,9.32
2023-04-21T00:28:05.624Z,9.32
2023-04-21T00:31:30.954Z,9.33
2023-04-21T00:34:56.099Z,9.35
2023-04-21T00:38:21.341Z,9.39
2023-04-21T00:41:47.094Z,9.43
2023-04-21T00:45:12.318Z,9.48
2023-04-21T00:48:37.615Z,9.53
2023-04-21T00:52:02.821Z,9.55
2023-04-21T00:55:28.064Z,9.55
2023-04-21T00:58:53.284Z,9.54
2023-04-21T01:02:18.550Z,9.55
2023-04-21T01:05:43.759Z,9.55
2023-04-21T01:09:08.943Z,9.55
2023-04-21T01:12:34.158Z,9.58
2023-04-21T01:15:59.374Z,9.64
2023-04-21T01:19:24.578Z,9.65
2023-04-21T01:22:49.966Z,9.6
2023-04-21T01:26:15.037Z,9.58
2023-04-21T01:29:40.269Z,9.56
2023-04-21T01:33:05.544Z,9.56
2023-04-21T01:36:30.724Z,9.54
2023-04-21T01:39:55.983Z,9.5
2023-04-21T01:43:21.200Z,9.44
2023-04-21T01:46:46.431Z,9.38
2023-04-21T01:50:11.666Z,9.35
2023-04-21T01:53:36.891Z,9.31
2023-04-21T01:57:02.257Z,9.23
2023-04-21T02:00:27.385Z,9.18
2023-04-21T02:03:52.800Z,9.15
2023-04-21T02:07:17.876Z,9.14
2023-04-21T02:10:43.106Z,9.14
2023-04-21T02:14:08.318Z,9.13
2023-04-21T02:17:33.563Z,9.13
2023-04-21T02:20:58.756Z,9.08
2023-04-21T02:24:23.961Z,9.02
2023-04-21T02:27:49.168Z,8.96
2023-04-21T02:31:14.438Z,8.96
2023-04-21T02:34:39.561Z,8.92
2023-04-21T02:38:04.785Z,8.92
2023-04-21T02:41:30.022Z,8.86
2023-04-21T02:44:55.244Z,8.8
2023-04-21T02:48:20.527Z,8.72
2023-04-21T02:51:45.723Z,8.65
2023-04-21T02:55:10.928Z,8.6
2023-04-21T02:58:36.138Z,8.58
2023-04-21T03:02:01.429Z,8.56
2023-04-21T03:05:26.659Z,8.57
2023-04-21T03:08:51.835Z,8.59
2023-04-21T03:12:17.116Z,8.65
2023-04-21T03:15:42.339Z,8.72
2023-04-21T03:19:07.570Z,8.77
2023-04-21T03:22:32.842Z,8.8
2023-04-21T03:25:58.041Z,8.81
2023-04-21T03:29:23.284Z,8.83
2023-04-21T03:32:48.531Z,8.83
2023-04-21T03:36:13.756Z,8.84
2023-04-21T03:39:38.990Z,8.8
2023-04-21T03:43:04.182Z,8.74
2023-04-21T03:46:29.521Z,8.69
2023-04-21T03:49:54.656Z,8.64
2023-04-21T03:53:19.872Z,8.58
2023-04-21T03:56:45.298Z,8.55
2023-04-21T04:00:10.511Z,8.47
2023-04-21T04:03:35.827Z,8.36
2023-04-21T04:07:00.954Z,8.18
2023-04-21T04:10:27.035Z,8.06
2023-04-21T04:13:52.288Z,8
2023-04-21T04:17:17.729Z,8.04
2023-04-21T04:20:42.927Z,8.12
2023-04-21T04:24:08.164Z,8.19
2023-04-21T04:27:33.436Z,8.19
2023-04-21T04:30:58.823Z,8.23
2023-04-21T04:34:32.296Z,8.27
2023-04-21T04:37:57.501Z,8.33
2023-04-21T04:41:22.717Z,8.39
2023-04-21T04:44:47.958Z,8.45
2023-04-21T04:48:13.219Z,8.48
2023-04-21T04:51:38.387Z,8.51
2023-04-21T04:55:03.638Z,8.56
2023-04-21T04:58:28.841Z,8.61
2023-04-21T05:01:54.072Z,8.7
2023-04-21T05:05:19.385Z,8.8
2023-04-21T05:08:44.552Z,8.9
2023-04-21T05:12:09.834Z,9
2023-04-21T05:15:35.082Z,9.11
2023-04-21T05:19:00.316Z,9.18
2023-04-21T05:22:25.539Z,9.25
2023-04-21T05:25:50.732Z,9.31
2023-04-21T05:29:15.948Z,9.42
2023-04-21T05:32:41.280Z,9.54
2023-04-21T05:36:06.403Z,9.64
2023-04-21T05:39:31.657Z,9.74
2023-04-21T05:42:56.919Z,9.85
2023-04-21T05:46:22.147Z,9.95
2023-04-21T05:49:47.376Z,10.09
2023-04-21T05:53:12.619Z,10.22
2023-04-21T05:56:37.877Z,10.35
2023-04-21T06:00:03.071Z,10.5
2023-04-21T06:03:28.382Z,10.69
2023-04-21T06:06:53.539Z,10.87
2023-04-21T06:10:18.787Z,11.06
2023-04-21T06:13:44.069Z,11.24
2023-04-21T06:17:09.263Z,11.37
2023-04-21T06:20:34.527Z,11.49
2023-04-21T06:23:59.748Z,11.6
2023-04-21T06:27:24.978Z,11.75
2023-04-21T06:30:50.215Z,11.93
2023-04-21T06:34:15.453Z,12.06
2023-04-21T06:37:40.699Z,12.16
2023-04-21T06:41:05.943Z,12.19
2023-04-21T06:44:31.166Z,12.23
2023-04-21T06:47:56.429Z,12.23
2023-04-21T06:51:21.600Z,12.21
2023-04-21T06:54:46.820Z,12.2
2023-04-21T06:58:12.030Z,12.17
2023-04-21T07:01:37.346Z,12.18
2023-04-21T07:05:02.641Z,12.17
2023-04-21T07:08:27.826Z,12.17
2023-04-21T07:11:53.038Z,12.24
2023-04-21T07:15:18.229Z,12.32
2023-04-21T07:18:43.456Z,12.41
2023-04-21T07:22:08.683Z,12.53
2023-04-21T07:25:33.916Z,12.64
2023-04-21T07:28:59.124Z,12.71
2023-04-21T07:32:24.336Z,12.8
2023-04-21T07:35:49.513Z,12.91
2023-04-21T07:39:14.769Z,13.07
2023-04-21T07:42:39.988Z,13.24
2023-04-21T07:46:05.214Z,13.39
2023-04-21T07:49:30.424Z,13.53
2023-04-21T07:52:55.648Z,13.69
2023-04-21T07:56:20.929Z,13.88
2023-04-21T07:59:46.123Z,14.03
2023-04-21T08:03:11.467Z,14.2
2023-04-21T08:06:36.704Z,14.33
2023-04-21T08:10:01.786Z,14.46
2023-04-21T08:13:27.012Z,14.6
2023-04-21T08:16:53.043Z,14.74
2023-04-21T08:20:17.491Z,14.85
2023-04-21T08:23:42.749Z,14.99
2023-04-21T08:27:07.940Z,15.06
2023-04-21T08:30:33.292Z,15.11
2023-04-21T08:34:02.235Z,15.19
2023-04-21T08:37:23.717Z,15.27
2023-04-21T08:40:48.931Z,15.35
2023-04-21T08:44:14.187Z,15.43
2023-04-21T08:47:39.574Z,15.49
2023-04-21T08:51:04.664Z,15.58
2023-04-21T08:54:30.217Z,15.66
2023-04-21T08:57:55.159Z,15.77
2023-04-21T09:01:20.388Z,15.88
2023-04-21T09:04:45.810Z,15.98
2023-04-21T09:08:10.885Z,16.07
2023-04-21T09:11:36.155Z,16.129999
2023-04-21T09:15:01.475Z,16.18
2023-04-21T09:18:26.755Z,16.27
2023-04-21T09:21:52.017Z,16.35
2023-04-21T09:25:17.199Z,16.43
2023-04-21T09:28:42.426Z,16.540001
2023-04-21T09:32:09.724Z,16.73
2023-04-21T09:35:32.890Z,16.93
2023-04-21T09:39:17.739Z,17.1
2023-04-21T09:42:23.337Z,17.129999
2023-04-21T09:45:48.574Z,17.1
2023-04-21T09:49:13.847Z,17.18
2023-04-21T09:52:39.064Z,17.25
2023-04-21T09:56:04.313Z,17.309999
2023-04-21T09:59:29.500Z,17.370001
2023-04-21T10:02:54.814Z,17.4
2023-04-21T10:06:20.000Z,17.450001
2023-04-21T10:09:45.212Z,17.610001
2023-04-21T10:13:10.444Z,17.77
2023-04-21T10:16:35.709Z,17.959999
2023-04-21T10:20:00.869Z,18.16
2023-04-21T10:23:26.114Z,18.389999
2023-04-21T10:26:53.355Z,18.629999
2023-04-21T10:30:16.704Z,18.809999
2023-04-21T10:33:42.126Z,18.93
2023-04-21T10:37:07.361Z,18.950001
2023-04-21T10:40:43.566Z,18.969999
2023-04-21T10:43:57.776Z,18.99
2023-04-21T10:47:23.042Z,19.02
2023-04-21T10:50:48.205Z,19.1
2023-04-21T10:54:13.466Z,18.950001
2023-04-21T10:57:39.234Z,18.860001
2023-04-21T11:01:04.515Z,18.84
2023-04-21T11:04:30.330Z,18.77
2023-04-21T11:07:55.005Z,18.709999
2023-04-21T11:11:20.235Z,18.709999
2023-04-21T11:14:45.433Z,18.83
2023-04-21T11:18:10.678Z,18.950001
2023-04-21T11:21:36.102Z,19.01
2023-04-21T11:25:01.116Z,18.940001
2023-04-21T11:28:26.337Z,18.799999
2023-04-21T11:31:51.538Z,18.799999
2023-04-21T11:35:16.985Z,18.889999
2023-04-21T11:38:42.268Z,19.030001
2023-04-21T11:42:07.466Z,19.07
2023-04-21T11:45:32.718Z,18.98
2023-04-21T11:48:57.936Z,18.969999
2023-04-21T11:52:23.178Z,19.049999
2023-04-21T11:55:48.493Z,19.25
2023-04-21T11:59:13.732Z,19.5
2023-04-21T12:02:39.141Z,19.639999
2023-04-21T12:06:04.217Z,19.74
2023-04-21T12:09:29.456Z,19.780001
2023-04-21T12:12:54.699Z,19.700001
2023-04-21T12:16:19.908Z,19.549999
2023-04-21T12:19:45.100Z,19.6
2023-04-21T12:23:10.339Z,19.65
2023-04-21T12:26:35.560Z,19.68
2023-04-21T12:30:00.874Z,19.68
2023-04-21T12:33:26.128Z,19.82
2023-04-21T12:36:51.222Z,19.98
2023-04-21T12:40:16.512Z,20.1
2023-04-21T12:43:41.747Z,20.139999
2023-04-21T12:47:06.993Z,20.18
2023-04-21T12:50:32.262Z,20.24
2023-04-21T12:53:57.500Z,20.129999
2023-04-21T12:57:22.710Z,19.950001
2023-04-21T13:00:47.938Z,20
2023-04-21T13:04:13.536Z,20.190001
2023-04-21T13:07:38.515Z,20.1
2023-04-21T13:11:03.846Z,19.98
2023-04-21T13:14:29.093Z,19.780001
2023-04-21T13:17:54.356Z,19.629999
2023-04-21T13:21:19.608Z,19.68
2023-04-21T13:24:44.910Z,19.58
2023-04-21T13:28:10.151Z,19.370001
2023-04-21T13:31:35.478Z,19.280001
2023-04-21T13:35:00.659Z,19.299999
2023-04-21T13:38:26.253Z,19.27
2023-04-21T13:41:53.503Z,19.280001
2023-04-21T13:45:16.702Z,19.280001
2023-04-21T13:48:41.938Z,19.18
2023-04-21T13:52:07.161Z,19.08
2023-04-21T13:55:32.447Z,19.07
2023-04-21T13:58:57.644Z,19.15
2023-04-21T14:02:23.118Z,19.139999
2023-04-21T14:05:48.224Z,19.01
2023-04-21T14:09:13.384Z,18.82
2023-04-21T14:12:38.669Z,18.690001
2023-04-21T14:16:03.893Z,18.620001
2023-04-21T14:19:29.154Z,18.59
2023-04-21T14:22:54.386Z,18.690001
2023-04-21T14:26:19.631Z,18.83
2023-04-21T14:29:44.853Z,18.950001
2023-04-21T14:33:10.451Z,19.059999
2023-04-21T14:36:35.681Z,19.17
2023-04-21T14:40:01.022Z,19.309999
2023-04-21T14:43:26.129Z,19.34
2023-04-21T14:47:01.397Z,19.34
2023-04-21T14:50:16.572Z,19.299999
2023-04-21T14:53:42.256Z,19.27
2023-04-21T14:57:18.562Z,19.18
2023-04-21T15:00:34.017Z,19.18
2023-04-21T15:03:59.425Z,19.15
2023-04-21T15:39:10.267Z,16.6
2023-04-21T15:42:35.535Z,17.49
2023-04-21T15:46:00.883Z,17.68
2023-04-21T15:49:26.372Z,17.84
2023-04-21T15:52:51.303Z,17.969999
2023-04-21T15:56:16.743Z,18.030001
2023-04-21T15:59:41.899Z,18.09
2023-04-21T16:03:07.355Z,18.17
2023-04-21T16:06:32.666Z,18.309999
2023-04-21T16:09:57.748Z,18.459999
2023-04-21T16:13:22.988Z,18.6
2023-04-21T16:16:48.294Z,18.700001
2023-04-21T16:20:13.577Z,18.74
2023-04-21T16:23:38.807Z,18.74
2023-04-21T16:27:04.134Z,18.74
2023-04-21T16:30:29.414Z,18.709999
2023-04-21T16:33:54.691Z,18.690001
2023-04-21T16:37:19.908Z,18.65
2023-04-21T16:40:45.196Z,18.629999
2023-04-21T16:44:10.459Z,18.57
2023-04-21T16:47:37.238Z,18.52
2023-04-21T16:51:00.920Z,18.5
2023-04-21T16:54:26.192Z,18.459999
2023-04-21T16:57:51.440Z,18.440001
2023-04-21T17:01:16.759Z,18.4
2023-04-21T17:04:42.019Z,18.309999
2023-04-21T17:08:07.268Z,18.200001
2023-04-21T17:11:32.588Z,18.110001
2023-04-21T17:14:58.137Z,18.02
2023-04-21T17:18:23.458Z,17.940001
2023-04-21T17:21:48.817Z,17.84
2023-04-21T17:25:14.180Z,17.76
2023-04-21T17:28:39.617Z,17.68
2023-04-21T17:32:04.981Z,17.59
2023-04-21T17:35:30.328Z,17.540001
2023-04-21T17:38:55.772Z,17.48
2023-04-21T17:42:21.102Z,17.440001
2023-04-21T17:45:46.530Z,17.379999
2023-04-21T17:49:11.846Z,17.33
2023-04-21T17:52:37.239Z,17.27
2023-04-21T17:56:02.636Z,17.200001
2023-04-21T17:59:28.003Z,17.15
2023-04-21T18:02:53.464Z,17.059999
2023-04-21T18:06:18.768Z,16.959999
2023-04-21T18:09:44.140Z,16.870001
2023-04-21T18:13:09.499Z,16.77
2023-04-21T18:16:35.026Z,16.59
2023-04-21T18:20:00.263Z,16.35
2023-04-21T18:23:25.638Z,16.08
2023-04-21T18:26:50.962Z,15.82
2023-04-21T18:30:16.365Z,15.58
2023-04-21T18:33:41.689Z,15.4
2023-04-21T18:37:07.015Z,15.27
2023-04-21T18:40:32.359Z,15.14
2023-04-21T18:43:57.689Z,14.99
2023-04-21T18:47:23.088Z,14.87
2023-04-21T18:50:48.392Z,14.74
2023-04-21T18:54:13.710Z,14.63
2023-04-21T18:57:39.028Z,14.59
2023-04-21T19:01:04.382Z,14.58
2023-04-21T19:04:29.856Z,14.6
2023-04-21T19:07:55.022Z,14.69
2023-04-21T19:11:20.329Z,14.79
2023-04-21T19:14:46.943Z,14.89
2023-04-21T19:18:11.005Z,14.97
2023-04-21T19:21:36.286Z,15.06
2023-04-21T19:25:01.583Z,15.1
2023-04-21T19:28:26.893Z,15.14
2023-04-21T19:31:52.256Z,15.16
2023-04-21T19:35:17.551Z,15.18
2023-04-21T19:38:42.962Z,15.17
2023-04-21T19:42:08.265Z,15.12
2023-04-21T19:45:33.606Z,15
2023-04-21T19:48:58.945Z,14.89
2023-04-21T19:52:24.286Z,14.82
2023-04-21T19:55:51.812Z,14.71
2023-04-21T19:59:14.973Z,14.6
2023-04-21T20:02:40.414Z,14.54
2023-04-21T20:06:05.818Z,14.52
2023-04-21T20:09:31.159Z,14.53
2023-04-21T20:12:56.555Z,14.54
2023-04-21T20:16:21.936Z,14.56
2023-04-21T20:19:47.279Z,14.52
2023-04-21T20:23:12.678Z,14.43
2023-04-21T20:26:38.140Z,14.26
2023-04-21T20:30:04.057Z,14.08
2023-04-21T20:33:28.844Z,13.94
2023-04-21T20:36:54.066Z,13.91
2023-04-21T20:40:19.293Z,13.93
2023-04-21T20:43:44.479Z,13.93
2023-04-21T20:47:09.757Z,13.86
2023-04-21T20:50:34.932Z,13.79
2023-04-21T20:54:00.161Z,13.71
2023-04-21T20:57:25.374Z,13.63
2023-04-21T21:00:50.651Z,13.54
2023-04-21T21:04:16.214Z,13.4
2023-04-21T21:07:40.987Z,13.27
2023-04-21T21:11:06.210Z,13.17
2023-04-21T21:14:31.411Z,13.09
2023-04-21T21:17:56.654Z,13.06
2023-04-21T21:21:21.893Z,13.08
2023-04-21T21:24:47.064Z,13.13
2023-04-21T21:28:12.265Z,13.15
2023-04-21T21:31:37.532Z,13.18
2023-04-21T21:35:02.711Z,13.24
2023-04-21T21:38:27.926Z,13.22
2023-04-21T21:41:53.114Z,13.19
2023-04-21T21:45:18.347Z,13.17
2023-04-21T21:48:43.526Z,13.16
2023-04-21T21:52:08.728Z,13.13
2023-04-21T21:55:34.084Z,13.12
2023-04-21T21:58:59.154Z,13.09
2023-04-21T22:02:24.438Z,13
2023-04-21T22:05:49.552Z,12.95
2023-04-21T22:09:14.756Z,12.89
2023-04-21T22:12:39.979Z,12.8
2023-04-21T22:16:05.164Z,12.69
2023-04-21T22:19:30.353Z,12.56
2023-04-21T22:22:55.569Z,12.43
2023-04-21T22:26:20.764Z,12.36
2023-04-21T22:29:45.998Z,12.27
2023-04-21T22:33:11.192Z,12.18
2023-04-21T22:36:36.400Z,12.08
2023-04-21T22:40:01.580Z,12.01
2023-04-21T22:43:26.784Z,11.94
2023-04-21T22:46:52.049Z,11.93
2023-04-21T22:50:17.232Z,11.93
2023-04-21T22:53:42.427Z,11.88
2023-04-21T22:57:07.593Z,11.81
2023-04-21T23:00:32.807Z,11.73
2023-04-21T23:03:58.264Z,11.66
2023-04-21T23:07:23.234Z,11.59
2023-04-21T23:10:48.435Z,11.53
2023-04-21T23:14:13.634Z,11.5
2023-04-21T23:17:38.857Z,11.5
2023-04-21T23:21:04.119Z,11.54
2023-04-21T23:24:29.299Z,11.56
2023-04-21T23:27:54.505Z,11.56
2023-04-21T23:31:19.741Z,11.54
2023-04-21T23:34:44.926Z,11.55
2023-04-21T23:38:10.155Z,11.62
2023-04-21T23:41:35.339Z,11.66
2023-04-21T23:45:00.558Z,11.68
2023-04-21T23:48:25.767Z,11.62
2023-04-21T23:51:50.984Z,11.56
2023-04-21T23:55:16.189Z,11.5
2023-04-21T23:58:41.378Z,11.49
